Time;durP1;ratioP1;P1;durP2;ratioP2;P2;SDS_P1;SDS_P2;PMS_P1;PMS_P2;Temp;Humidity;BMP_temperature;BMP_pressure;BME280_temperature;BME280_humidity;BME280_pressure;Samples;Min_cycle;Max_cycle;Signal;HPM_P1;HPM_P2
2021/09/24 00:00:07;;;;;;;3.50;2.97;;;15.80;99.90;;;;;;5110951;28;20024;-51
2021/09/24 00:02:32;;;;;;;4.65;3.35;;;15.90;99.90;;;;;;5092632;28;20073;-52
2021/09/24 00:04:58;;;;;;;6.68;3.50;;;15.80;99.90;;;;;;5109577;28;20032;-48
2021/09/24 00:07:23;;;;;;;2.92;2.72;;;15.90;99.90;;;;;;5110046;28;20020;-49
2021/09/24 00:09:49;;;;;;;4.00;2.65;;;16.00;99.90;;;;;;5111013;28;20049;-50
2021/09/24 00:12:16;;;;;;;6.35;3.22;;;;;;;;;;5092799;28;20019;-48
2021/09/24 00:14:42;;;;;;;4.38;3.53;;;16.00;99.90;;;;;;5110925;28;20114;-47
2021/09/24 00:17:08;;;;;;;4.40;3.20;;;16.00;99.90;;;;;;5111053;28;20070;-48
2021/09/24 00:19:33;;;;;;;4.45;3.15;;;16.00;99.90;;;;;;5110584;28;20496;-47
2021/09/24 00:21:59;;;;;;;3.47;2.88;;;16.00;99.90;;;;;;5110785;28;20024;-51
2021/09/24 00:24:24;;;;;;;3.45;3.15;;;16.00;99.90;;;;;;5110770;28;20024;-47
2021/09/24 00:26:50;;;;;;;5.10;3.28;;;16.00;99.90;;;;;;5110731;28;20051;-50
2021/09/24 00:29:15;;;;;;;4.70;3.33;;;16.00;99.90;;;;;;5093736;28;20023;-48
2021/09/24 00:31:41;;;;;;;3.58;2.80;;;16.10;99.90;;;;;;5096574;28;20024;-48
2021/09/24 00:34:07;;;;;;;4.13;2.97;;;16.10;99.90;;;;;;5115135;28;20035;-47
2021/09/24 00:36:32;;;;;;;3.53;3.22;;;16.10;99.90;;;;;;5096618;28;20050;-48
2021/09/24 00:38:58;;;;;;;6.05;3.35;;;16.20;99.90;;;;;;5114151;28;20032;-50
2021/09/24 00:41:23;;;;;;;9.25;3.88;;;16.20;99.90;;;;;;5114736;28;20570;-48
2021/09/24 00:43:49;;;;;;;5.72;3.40;;;16.20;99.90;;;;;;5114644;28;20051;-49
2021/09/24 00:46:14;;;;;;;4.18;3.10;;;16.20;99.90;;;;;;5096364;28;20377;-50
2021/09/24 00:48:40;;;;;;;4.50;3.08;;;16.10;99.90;;;;;;5114450;28;20016;-48
2021/09/24 00:51:06;;;;;;;3.70;3.40;;;16.00;99.90;;;;;;5096631;28;20031;-47
2021/09/24 00:53:31;;;;;;;7.28;2.92;;;16.00;99.90;;;;;;5114726;28;20065;-51
2021/09/24 00:55:59;;;;;;;4.50;3.42;;;15.90;99.90;;;;;;5114721;28;20019;-47
2021/09/24 00:58:24;;;;;;;3.80;2.85;;;15.90;99.90;;;;;;5095333;28;20035;-49
2021/09/24 01:00:50;;;;;;;6.82;3.70;;;15.80;99.90;;;;;;5114697;28;20501;-47
2021/09/24 01:03:15;;;;;;;9.15;3.95;;;15.70;99.90;;;;;;5114282;28;20052;-46
2021/09/24 01:05:41;;;;;;;3.67;3.38;;;15.70;99.90;;;;;;5113160;28;20032;-51
2021/09/24 01:08:07;;;;;;;6.43;3.80;;;15.60;99.90;;;;;;5113384;28;20032;-51
2021/09/24 01:10:33;;;;;;;6.68;3.63;;;15.60;99.90;;;;;;5095732;28;20023;-50
2021/09/24 01:12:59;;;;;;;6.28;3.40;;;15.60;99.90;;;;;;5113978;28;20045;-53
2021/09/24 01:15:24;;;;;;;8.55;3.67;;;15.50;99.90;;;;;;5113938;28;20028;-48
2021/09/24 01:17:50;;;;;;;5.13;3.13;;;15.50;99.90;;;;;;5113142;28;20028;-50
2021/09/24 01:20:19;;;;;;;4.00;3.63;;;15.50;99.90;;;;;;5113793;28;20024;-49
2021/09/24 01:22:47;;;;;;;4.47;3.42;;;15.40;99.90;;;;;;5095698;28;20066;-48
2021/09/24 01:25:15;;;;;;;6.20;3.50;;;15.40;99.90;;;;;;5113428;28;20374;-50
2021/09/24 01:27:41;;;;;;;5.35;4.07;;;15.40;99.90;;;;;;5113063;28;20099;-47
2021/09/24 01:30:07;;;;;;;6.78;3.50;;;15.40;99.90;;;;;;5113896;28;20030;-46
2021/09/24 01:32:33;;;;;;;5.25;3.40;;;15.30;99.90;;;;;;5113955;28;20035;-50
2021/09/24 01:35:00;;;;;;;5.53;3.53;;;15.30;99.90;;;;;;5113884;28;20031;-49
2021/09/24 01:37:26;;;;;;;4.25;3.35;;;15.20;99.90;;;;;;5113072;28;20016;-49
2021/09/24 01:39:51;;;;;;;3.28;3.03;;;15.20;99.90;;;;;;5113062;28;20027;-47
2021/09/24 01:42:21;;;;;;;4.25;3.05;;;15.20;99.90;;;;;;5113512;28;20626;-47
2021/09/24 01:44:46;;;;;;;3.85;3.50;;;15.20;99.90;;;;;;5113260;28;20081;-51
2021/09/24 01:47:12;;;;;;;6.18;3.88;;;15.20;99.90;;;;;;5112794;28;20028;-48
2021/09/24 01:49:37;;;;;;;8.95;4.05;;;15.20;99.90;;;;;;5113067;28;20071;-50
2021/09/24 01:52:03;;;;;;;8.93;3.65;;;15.20;99.90;;;;;;5095013;28;20507;-49
2021/09/24 01:54:29;;;;;;;5.60;3.10;;;15.20;99.90;;;;;;5113146;28;20024;-48
2021/09/24 01:56:55;;;;;;;4.93;3.88;;;15.10;99.90;;;;;;5113158;28;20084;-48
2021/09/24 01:59:20;;;;;;;6.85;3.25;;;15.10;99.90;;;;;;5112401;28;20032;-51
2021/09/24 02:01:46;;;;;;;5.22;3.70;;;15.00;99.90;;;;;;5113068;28;20122;-47
2021/09/24 02:04:11;;;;;;;5.07;3.85;;;15.10;99.90;;;;;;5112012;28;20055;-49
2021/09/24 02:06:37;;;;;;;3.97;3.58;;;15.10;99.90;;;;;;5112708;28;20024;-48
2021/09/24 02:09:03;;;;;;;3.78;3.33;;;15.00;99.90;;;;;;5093719;28;20023;-51
2021/09/24 02:11:28;;;;;;;5.60;4.05;;;15.00;99.90;;;;;;5094600;28;20651;-47
2021/09/24 02:13:53;;;;;;;5.50;4.47;;;14.90;99.90;;;;;;5094522;28;20024;-51
2021/09/24 02:16:19;;;;;;;4.18;3.55;;;14.80;99.90;;;;;;5122898;22;20023;-45
2021/09/24 02:18:45;;;;;;;5.97;4.00;;;14.60;99.90;;;;;;5071521;28;20032;-48
2021/09/24 02:21:10;;;;;;;4.50;4.10;;;14.50;99.90;;;;;;5072014;28;20541;-47
2021/09/24 02:23:36;;;;;;;4.32;3.92;;;14.30;99.90;;;;;;5071752;28;20509;-47
2021/09/24 02:26:03;;;;;;;6.18;4.10;;;14.30;99.90;;;;;;5072066;28;20020;-52
2021/09/24 02:28:29;;;;;;;3.80;3.50;;;14.40;99.90;;;;;;5070303;28;20028;-45
2021/09/24 02:30:55;;;;;;;6.00;4.13;;;14.40;99.90;;;;;;5070855;28;20031;-45
2021/09/24 02:33:20;;;;;;;5.07;4.20;;;14.50;99.90;;;;;;5071841;28;20398;-50
2021/09/24 02:35:46;;;;;;;5.93;3.95;;;14.50;99.90;;;;;;5071812;28;20040;-51
2021/09/24 02:38:11;;;;;;;5.50;3.97;;;14.60;99.90;;;;;;5070941;28;20054;-49
2021/09/24 02:40:37;;;;;;;5.22;4.15;;;14.60;99.90;;;;;;5071865;28;20028;-46
2021/09/24 02:43:03;;;;;;;4.70;3.70;;;14.60;99.90;;;;;;5071614;28;20111;-46
2021/09/24 02:45:29;;;;;;;6.00;3.67;;;14.70;99.90;;;;;;5071570;28;20561;-50
2021/09/24 02:47:54;;;;;;;5.07;4.47;;;14.70;99.90;;;;;;5070781;28;20048;-51
2021/09/24 02:50:20;;;;;;;4.13;3.58;;;14.60;99.90;;;;;;5071644;28;20371;-50
2021/09/24 02:52:46;;;;;;;6.88;4.20;;;14.40;99.90;;;;;;5070581;28;20099;-49
2021/09/24 02:55:11;;;;;;;7.05;4.22;;;14.30;99.90;;;;;;5071516;28;20060;-45
2021/09/24 02:57:37;;;;;;;4.20;3.80;;;14.20;99.90;;;;;;5070837;28;20573;-47
2021/09/24 03:00:05;;;;;;;7.20;4.38;;;14.20;99.90;;;;;;5071353;28;20024;-47
2021/09/24 03:02:31;;;;;;;5.22;3.85;;;14.20;99.90;;;;;;5071240;28;20028;-53
2021/09/24 03:04:56;;;;;;;6.43;4.45;;;14.30;99.90;;;;;;5071438;28;20070;-47
2021/09/24 03:07:22;;;;;;;4.82;4.32;;;14.20;99.90;;;;;;5070708;28;20028;-51
2021/09/24 03:09:47;;;;;;;6.05;4.43;;;14.30;99.90;;;;;;5071738;28;20028;-47
2021/09/24 03:12:14;;;;;;;8.13;4.82;;;14.30;99.90;;;;;;5071777;28;20032;-49
2021/09/24 03:14:39;;;;;;;6.32;4.53;;;14.30;99.90;;;;;;5071669;28;20394;-50
2021/09/24 03:17:05;;;;;;;7.00;5.45;;;14.20;99.90;;;;;;5070709;28;20043;-50
2021/09/24 03:19:30;;;;;;;7.85;4.70;;;14.20;99.90;;;;;;5070326;28;20024;-52
2021/09/24 03:21:56;;;;;;;7.10;4.97;;;14.20;99.90;;;;;;5071154;28;20104;-45
2021/09/24 03:24:21;;;;;;;5.65;4.85;;;14.20;99.90;;;;;;5071466;28;20029;-46
2021/09/24 03:26:47;;;;;;;6.07;4.40;;;14.10;99.90;;;;;;5071293;28;20392;-46
2021/09/24 03:29:13;;;;;;;11.00;6.15;;;14.00;99.90;;;;;;5070393;28;20017;-49
2021/09/24 03:31:40;;;;;;;5.47;4.93;;;14.00;99.90;;;;;;5052953;28;20055;-46
2021/09/24 03:34:07;;;;;;;5.95;4.82;;;14.00;99.90;;;;;;5069836;28;20063;-51
2021/09/24 03:36:33;;;;;;;6.97;4.85;;;13.90;99.90;;;;;;5070654;28;20532;-50
2021/09/24 03:38:59;;;;;;;5.65;4.68;;;13.80;99.90;;;;;;5069868;28;20033;-49
2021/09/24 03:41:25;;;;;;;5.43;4.93;;;13.80;99.90;;;;;;5070684;28;20164;-48
2021/09/24 03:43:50;;;;;;;5.50;4.65;;;13.80;99.90;;;;;;5070523;28;20395;-49
2021/09/24 03:46:16;;;;;;;8.77;4.90;;;13.80;99.90;;;;;;5070505;28;20032;-47
2021/09/24 03:48:42;;;;;;;9.13;5.25;;;13.80;99.90;;;;;;5069807;28;20498;-49
2021/09/24 03:51:07;;;;;;;6.07;5.47;;;13.70;99.90;;;;;;5070380;28;20024;-50
2021/09/24 03:53:33;;;;;;;10.48;5.80;;;13.70;99.90;;;;;;5070485;28;20033;-49
2021/09/24 03:55:58;;;;;;;10.13;5.75;;;13.50;99.90;;;;;;5052546;28;20028;-52
2021/09/24 03:58:24;;;;;;;6.93;5.38;;;13.50;99.90;;;;;;5069879;28;20056;-47
2021/09/24 04:00:50;;;;;;;6.85;6.05;;;13.30;99.90;;;;;;5070526;28;20029;-51
2021/09/24 04:03:17;;;;;;;15.10;5.60;;;13.30;99.90;;;;;;5070100;28;20037;-46
2021/09/24 04:05:44;;;;;;;11.45;6.68;;;13.30;99.90;;;;;;5070277;28;20486;-46
2021/09/24 04:08:10;;;;;;;12.50;6.10;;;13.30;99.90;;;;;;5069675;28;20046;-52
2021/09/24 04:10:35;;;;;;;9.00;6.43;;;13.30;99.90;;;;;;5070462;28;20020;-51
2021/09/24 04:13:01;;;;;;;8.27;5.93;;;13.30;99.90;;;;;;5070530;28;20044;-45
2021/09/24 04:15:26;;;;;;;7.97;6.63;;;13.30;99.90;;;;;;5070229;28;20082;-48
2021/09/24 04:17:52;;;;;;;9.52;6.70;;;13.30;99.90;;;;;;5051489;28;20032;-52
2021/09/24 04:20:17;;;;;;;7.97;6.22;;;13.40;99.90;;;;;;5070439;28;20473;-48
2021/09/24 04:22:43;;;;;;;9.07;6.18;;;13.40;99.90;;;;;;5070164;28;20020;-46
2021/09/24 04:25:09;;;;;;;11.00;7.63;;;13.40;99.90;;;;;;5070253;28;20051;-47
2021/09/24 04:27:35;;;;;;;10.55;7.85;;;13.30;99.90;;;;;;5069457;28;20067;-46
2021/09/24 04:30:00;;;;;;;8.60;6.57;;;13.30;99.90;;;;;;5070421;28;20032;-48
2021/09/24 04:32:26;;;;;;;10.02;8.05;;;13.20;99.90;;;;;;5070265;28;20496;-46
2021/09/24 04:34:51;;;;;;;12.73;8.05;;;13.10;99.90;;;;;;5069049;28;20040;-48
2021/09/24 04:37:17;;;;;;;10.52;6.80;;;13.10;99.90;;;;;;5069453;28;20027;-47
2021/09/24 04:39:43;;;;;;;9.00;7.07;;;13.10;99.90;;;;;;5070924;28;20762;-46
2021/09/24 04:42:08;;;;;;;10.30;7.35;;;13.10;99.90;;;;;;5070548;28;20032;-51
2021/09/24 04:44:34;;;;;;;12.85;7.28;;;13.10;99.90;;;;;;5070583;28;20025;-51
2021/09/24 04:47:00;;;;;;;9.70;7.40;;;13.00;99.90;;;;;;5070698;28;20020;-50
2021/09/24 04:49:25;;;;;;;12.05;7.97;;;13.00;99.90;;;;;;5069318;28;20375;-47
2021/09/24 04:51:51;;;;;;;11.50;8.15;;;13.00;99.90;;;;;;5070340;28;20020;-50
2021/09/24 04:54:17;;;;;;;12.52;8.45;;;12.90;99.90;;;;;;5070280;28;20449;-49
2021/09/24 04:56:43;;;;;;;18.55;8.18;;;12.90;99.90;;;;;;5052359;28;20035;-48
2021/09/24 04:59:08;;;;;;;10.32;7.68;;;12.90;99.90;;;;;;5051403;28;20025;-49
2021/09/24 05:01:34;;;;;;;11.35;8.20;;;12.80;99.90;;;;;;5051954;28;20068;-50
2021/09/24 05:03:59;;;;;;;12.20;8.18;;;12.80;99.90;;;;;;5069657;28;20068;-49
2021/09/24 05:06:25;;;;;;;12.40;8.18;;;12.80;99.90;;;;;;5070022;28;20056;-52
2021/09/24 05:08:50;;;;;;;10.55;8.50;;;12.80;99.90;;;;;;5069089;28;20020;-49
2021/09/24 05:11:16;;;;;;;11.63;8.20;;;12.90;99.90;;;;;;5069756;28;20123;-46
2021/09/24 05:13:42;;;;;;;13.23;8.13;;;12.80;99.90;;;;;;5069528;28;20020;-49
2021/09/24 05:16:07;;;;;;;12.57;8.40;;;12.80;99.90;;;;;;5053039;28;20029;-47
2021/09/24 05:18:33;;;;;;;10.00;8.52;;;12.90;99.90;;;;;;5072661;28;20039;-47
2021/09/24 05:20:58;;;;;;;14.20;7.43;;;12.90;99.90;;;;;;5073217;28;20093;-45
2021/09/24 05:23:24;;;;;;;10.57;8.82;;;12.90;99.90;;;;;;5055205;28;20028;-49
2021/09/24 05:25:49;;;;;;;11.48;7.97;;;12.90;99.90;;;;;;5073185;28;20504;-48
2021/09/24 05:28:15;;;;;;;14.23;8.65;;;12.90;99.90;;;;;;5072370;28;20398;-49
2021/09/24 05:30:40;;;;;;;11.27;8.52;;;12.90;99.90;;;;;;5055014;28;20016;-45
2021/09/24 05:33:06;;;;;;;12.02;9.18;;;12.90;99.90;;;;;;5073064;28;20398;-45
2021/09/24 05:35:32;;;;;;;13.43;8.65;;;12.90;99.90;;;;;;5071640;28;20108;-45
2021/09/24 05:37:58;;;;;;;15.07;8.95;;;12.90;99.90;;;;;;5053175;28;20028;-48
2021/09/24 05:40:23;;;;;;;12.88;9.30;;;12.90;99.90;;;;;;5054963;28;20466;-48
2021/09/24 05:42:50;;;;;;;13.77;8.95;;;12.80;99.90;;;;;;5073040;28;20062;-44
2021/09/24 05:45:16;;;;;;;10.30;8.32;;;12.90;99.90;;;;;;5072638;28;20027;-51
2021/09/24 05:47:43;;;;;;;13.05;9.20;;;13.00;99.90;;;;;;5071870;28;20537;-46
2021/09/24 05:50:15;;;;;;;15.43;8.70;;;13.00;99.90;;;;;;5072669;28;20055;-49
2021/09/24 05:52:47;;;;;;;12.20;8.43;;;13.00;99.90;;;;;;5072856;28;20437;-49
2021/09/24 05:55:16;;;;;;;16.30;9.88;;;12.90;99.90;;;;;;5072600;28;20020;-48
2021/09/24 05:57:42;;;;;;;12.55;9.95;;;12.90;99.90;;;;;;5071716;28;20029;-48
2021/09/24 06:00:10;;;;;;;14.60;8.68;;;12.90;99.90;;;;;;5072627;28;20528;-50
2021/09/24 06:02:36;;;;;;;11.02;9.43;;;13.00;99.90;;;;;;5072740;28;20107;-51
2021/09/24 06:05:02;;;;;;;13.85;8.65;;;13.00;99.90;;;;;;5057363;28;20158;-53
2021/09/24 06:07:28;;;;;;;14.82;10.13;;;13.00;99.90;;;;;;5072913;28;20017;-48
2021/09/24 06:09:54;;;;;;;16.15;9.00;;;13.10;99.90;;;;;;5073679;28;20025;-49
2021/09/24 06:12:19;;;;;;;11.15;8.55;;;13.10;99.90;;;;;;5072806;28;20017;-46
2021/09/24 06:14:45;;;;;;;12.73;9.45;;;13.10;99.90;;;;;;5072172;28;20052;-49
2021/09/24 06:17:11;;;;;;;18.25;8.90;;;13.20;99.90;;;;;;5071651;28;20041;-42
2021/09/24 06:19:38;;;;;;;16.92;9.55;;;13.20;99.90;;;;;;5071866;28;20086;-51
2021/09/24 06:22:05;;;;;;;14.00;8.80;;;13.30;99.90;;;;;;5072093;28;20086;-47
2021/09/24 06:24:31;;;;;;;11.77;8.70;;;13.40;99.90;;;;;;5071975;28;20031;-50
2021/09/24 06:26:56;;;;;;;13.75;8.95;;;13.50;99.90;;;;;;5071713;28;20029;-49
2021/09/24 06:29:21;;;;;;;13.88;8.90;;;13.50;99.90;;;;;;5071320;28;20553;-46
2021/09/24 06:31:47;;;;;;;21.30;10.90;;;13.60;99.90;;;;;;5072045;28;20032;-52
2021/09/24 06:34:13;;;;;;;14.75;8.85;;;13.60;99.90;;;;;;5070746;28;20055;-46
2021/09/24 06:36:38;;;;;;;14.82;9.77;;;13.80;99.90;;;;;;5070689;28;20037;-48
2021/09/24 06:39:04;;;;;;;11.88;8.80;;;13.80;99.90;;;;;;5053133;28;20031;-48
2021/09/24 06:41:30;;;;;;;14.75;9.65;;;13.90;99.90;;;;;;5071757;28;20404;-49
2021/09/24 06:43:55;;;;;;;12.77;9.52;;;14.00;99.90;;;;;;5071570;28;20035;-49
2021/09/24 06:46:21;;;;;;;19.02;8.95;;;14.00;99.90;;;;;;5071659;28;20020;-48
2021/09/24 06:48:47;;;;;;;13.93;9.27;;;14.10;99.90;;;;;;5070896;28;20029;-51
2021/09/24 06:51:12;;;;;;;12.35;8.40;;;14.20;99.90;;;;;;5071716;28;20367;-48
2021/09/24 06:53:38;;;;;;;11.32;8.88;;;14.20;99.90;;;;;;5071584;28;20028;-51
2021/09/24 06:56:03;;;;;;;17.20;8.77;;;14.40;99.90;;;;;;5071700;28;20389;-50
2021/09/24 06:58:29;;;;;;;12.00;8.52;;;14.50;99.90;;;;;;5070686;28;20035;-49
2021/09/24 07:00:55;;;;;;;16.45;8.70;;;14.60;99.90;;;;;;5071491;28;20094;-49
2021/09/24 07:03:20;;;;;;;11.88;7.82;;;14.70;99.90;;;;;;5071649;28;20024;-48
2021/09/24 07:05:46;;;;;;;11.65;8.38;;;14.90;99.90;;;;;;5071739;28;20067;-51
2021/09/24 07:08:11;;;;;;;13.60;8.02;;;15.10;99.90;;;;;;5070882;28;20087;-47
2021/09/24 07:10:37;;;;;;;14.65;7.45;;;15.20;99.90;;;;;;5071448;28;20048;-49
2021/09/24 07:13:03;;;;;;;10.23;7.10;;;15.40;99.90;;;;;;5071628;28;20081;-49
2021/09/24 07:15:29;;;;;;;14.20;8.07;;;15.70;99.90;;;;;;5071252;28;20025;-49
2021/09/24 07:17:54;;;;;;;7.85;6.28;;;15.80;99.90;;;;;;5070580;28;20024;-47
2021/09/24 07:20:21;;;;;;;9.15;7.55;;;15.90;99.90;;;;;;5053345;28;20028;-46
2021/09/24 07:22:47;;;;;;;7.82;7.05;;;16.10;99.90;;;;;;5071444;28;20025;-51
2021/09/24 07:25:12;;;;;;;10.98;7.20;;;16.20;99.90;;;;;;5071250;28;20036;-49
2021/09/24 07:27:38;;;;;;;10.57;6.82;;;16.40;99.90;;;;;;5070294;28;20100;-46
2021/09/24 07:30:04;;;;;;;8.25;6.43;;;16.50;99.90;;;;;;5070992;28;20033;-46
2021/09/24 07:32:30;;;;;;;9.15;5.60;;;16.60;99.90;;;;;;5071290;28;20021;-45
2021/09/24 07:34:56;;;;;;;12.00;7.10;;;16.80;99.90;;;;;;5070237;28;20436;-49
2021/09/24 07:37:21;;;;;;;11.93;5.82;;;16.90;99.90;;;;;;5070442;28;20036;-52
2021/09/24 07:39:47;;;;;;;6.90;6.00;;;17.00;99.90;;;;;;5070616;28;20108;-45
2021/09/24 07:42:13;;;;;;;10.60;6.10;;;16.90;99.90;;;;;;5071285;28;20078;-47
2021/09/24 07:44:38;;;;;;;7.88;6.60;;;16.90;99.90;;;;;;5070894;28;20470;-44
2021/09/24 07:47:04;;;;;;;9.75;6.50;;;16.70;99.90;;;;;;5070504;28;20428;-46
2021/09/24 07:49:29;;;;;;;13.27;5.97;;;16.70;99.90;;;;;;5069849;28;20039;-52
2021/09/24 07:51:55;;;;;;;10.90;6.25;;;16.70;99.90;;;;;;5070735;28;20442;-49
2021/09/24 07:54:21;;;;;;;11.60;6.43;;;16.70;99.90;;;;;;5070907;28;20029;-47
2021/09/24 07:56:49;;;;;;;10.05;6.88;;;16.70;99.90;;;;;;5070796;28;20020;-46
2021/09/24 07:59:15;;;;;;;72.45;12.15;;;16.60;99.90;;;;;;5070150;28;20079;-47
2021/09/24 08:01:40;;;;;;;14.88;8.57;;;16.60;99.90;;;;;;5070599;28;20075;-47
2021/09/24 08:04:06;;;;;;;11.30;6.50;;;16.60;99.90;;;;;;5070507;28;20166;-52
2021/09/24 08:06:31;;;;;;;9.52;7.25;;;16.50;99.90;;;;;;5070364;28;20631;-45
2021/09/24 08:08:56;;;;;;;12.68;7.03;;;16.40;99.90;;;;;;5069680;28;20028;-46
2021/09/24 08:11:22;;;;;;;10.23;6.55;;;16.40;99.90;;;;;;5070395;28;20500;-48
2021/09/24 08:13:48;;;;;;;11.68;6.80;;;16.40;99.90;;;;;;5052332;28;20085;-49
2021/09/24 08:16:13;;;;;;;10.57;7.28;;;16.40;99.90;;;;;;5070219;28;20680;-47
2021/09/24 08:18:39;;;;;;;6.50;5.85;;;16.40;99.90;;;;;;5116477;22;20113;-48
2021/09/24 08:21:05;;;;;;;10.65;5.95;;;16.40;99.90;;;;;;5092571;28;20119;-46
2021/09/24 08:23:31;;;;;;;12.27;5.93;;;16.50;99.90;;;;;;5110608;28;20027;-46
2021/09/24 08:25:57;;;;;;;8.93;6.07;;;16.60;99.90;;;;;;5110538;28;20020;-46
2021/09/24 08:28:22;;;;;;;8.85;6.20;;;16.70;99.90;;;;;;5091782;28;20030;-47
2021/09/24 08:30:48;;;;;;;10.40;5.68;;;16.80;99.90;;;;;;5109917;28;20122;-46
2021/09/24 08:33:17;;;;;;;11.38;5.80;;;16.80;99.90;;;;;;5109555;28;20024;-45
2021/09/24 08:35:43;;;;;;;10.13;5.38;;;16.90;99.90;;;;;;5110504;28;20384;-48
2021/09/24 08:38:10;;;;;;;15.77;6.28;;;16.90;99.90;;;;;;5109741;28;20026;-44
2021/09/24 08:40:36;;;;;;;9.98;5.95;;;16.90;99.90;;;;;;5110449;28;20030;-47
2021/09/24 08:43:04;;;;;;;9.57;5.20;;;17.00;99.90;;;;;;5110277;28;20183;-45
2021/09/24 08:45:30;;;;;;;10.82;6.65;;;17.00;99.90;;;;;;5110209;28;20024;-46
2021/09/24 08:47:57;;;;;;;10.05;5.82;;;17.10;99.90;;;;;;5091293;28;20020;-45
2021/09/24 08:50:23;;;;;;;8.43;4.93;;;17.10;99.90;;;;;;5094496;28;20444;-46
2021/09/24 08:52:49;;;;;;;7.40;5.07;;;17.20;99.90;;;;;;5114528;28;20015;-55
2021/09/24 08:55:15;;;;;;;7.65;4.00;;;18.00;99.90;;;;;;5121829;28;20080;-51
2021/09/24 08:57:42;;;;;;;12.18;4.85;;;19.30;99.90;;;;;;5119918;28;20457;-50
2021/09/24 09:00:09;;;;;;;10.48;4.25;;;20.80;99.90;;;;;;5117333;28;20020;-53
2021/09/24 09:02:58;;;;;;;4.95;3.17;;;22.40;97.10;;;;;;5118769;28;20492;-50
2021/09/24 09:05:25;;;;;;;3.58;3.28;;;24.00;94.40;;;;;;5120808;28;20023;-51
2021/09/24 09:08:03;;;;;;;3.28;2.70;;;24.60;93.10;;;;;;5101449;28;20038;-50
2021/09/24 09:10:44;;;;;;;12.32;4.88;;;25.40;91.80;;;;;;5120226;28;20032;-52
2021/09/24 09:13:12;;;;;;;8.27;3.85;;;26.10;90.30;;;;;;5120385;28;20020;-51
2021/09/24 09:15:38;;;;;;;8.45;3.03;;;26.30;89.20;;;;;;5120921;28;20266;-50
2021/09/24 09:18:04;;;;;;;6.28;3.75;;;26.80;89.90;;;;;;5118992;28;20664;-48
2021/09/24 09:20:31;;;;;;;5.07;3.53;;;27.80;86.00;;;;;;5102213;28;20070;-50
2021/09/24 09:23:00;;;;;;;5.72;2.60;;;27.90;83.80;;;;;;5105955;28;20030;-51
2021/09/24 09:25:34;;;;;;;7.30;3.00;;;28.20;84.20;;;;;;5115368;28;20034;-49
2021/09/24 09:28:05;;;;;;;4.45;2.75;;;28.20;82.20;;;;;;5113819;28;20090;-50
2021/09/24 09:30:32;;;;;;;3.63;2.92;;;28.30;82.60;;;;;;5114601;28;20039;-52
2021/09/24 09:33:07;;;;;;;4.50;2.67;;;;;;;;;;5114858;28;20067;-48
2021/09/24 09:35:37;;;;;;;;;;;27.40;83.80;;;;;;5115012;28;20027;-47
2021/09/24 09:38:02;;;;;;;5.45;3.58;;;26.90;86.10;;;;;;5112030;28;19908;-47
2021/09/24 09:40:28;;;;;;;7.65;3.90;;;26.30;88.20;;;;;;5114900;28;20034;-47
2021/09/24 09:42:57;;;;;;;6.90;3.60;;;25.00;88.30;;;;;;5114757;28;20514;-48
2021/09/24 09:45:24;;;;;;;11.73;3.10;;;24.80;90.00;;;;;;5114685;28;20107;-49
2021/09/24 09:47:51;;;;;;;7.82;3.30;;;24.40;90.10;;;;;;5095149;28;20028;-47
2021/09/24 09:50:21;;;;;;;9.57;3.95;;;24.20;90.40;;;;;;5113060;28;20512;-47
2021/09/24 09:52:55;;;;;;;5.15;3.22;;;24.20;90.90;;;;;;5113390;28;20016;-46
2021/09/24 09:55:23;;;;;;;8.10;3.10;;;24.30;90.30;;;;;;5113153;28;20062;-51
2021/09/24 09:58:00;;;;;;;4.47;2.88;;;24.40;90.80;;;;;;5093977;28;20027;-57
2021/09/24 10:00:27;;;;;;;6.47;3.47;;;24.50;90.80;;;;;;5113159;28;20031;-49
2021/09/24 10:03:09;;;;;;;4.13;3.47;;;24.20;91.00;;;;;;5094081;28;20024;-46
2021/09/24 10:05:35;;;;;;;5.38;3.50;;;24.20;90.90;;;;;;5112988;28;20400;-48
2021/09/24 10:08:30;;;;;;;10.57;4.03;;;24.20;91.20;;;;;;5112299;28;20032;-52
2021/09/24 10:11:03;;;;;;;9.80;3.90;;;23.70;91.60;;;;;;5112985;28;20031;-52
2021/09/24 10:13:32;;;;;;;4.25;3.13;;;23.30;92.30;;;;;;5112672;28;20024;-50
2021/09/24 10:15:58;;;;;;;5.43;3.92;;;23.10;93.00;;;;;;5112699;28;20119;-51
2021/09/24 10:18:24;;;;;;;8.10;3.92;;;23.10;93.10;;;;;;5112130;28;20084;-52
2021/09/24 10:20:50;;;;;;;5.50;3.38;;;23.10;93.20;;;;;;5112660;28;20087;-53
2021/09/24 10:23:17;;;;;;;8.43;4.07;;;23.10;92.70;;;;;;5112669;28;20376;-54
2021/09/24 10:25:47;;;;;;;5.82;3.78;;;22.90;93.30;;;;;;5094146;28;20027;-54
2021/09/24 10:28:14;;;;;;;9.30;3.47;;;22.80;93.30;;;;;;5111667;28;20064;-51
2021/09/24 10:30:40;;;;;;;3.00;2.65;;;22.80;93.10;;;;;;5111615;28;20027;-50
2021/09/24 10:33:11;;;;;;;6.60;2.95;;;22.90;93.20;;;;;;5111891;28;20535;-50
2021/09/24 10:35:55;;;;;;;2.95;2.35;;;22.80;93.60;;;;;;5111724;28;20028;-59
2021/09/24 10:38:30;;;;;;;6.57;4.20;;;22.60;93.20;;;;;;5108887;28;20412;-54
2021/09/24 10:41:06;;;;;;;8.45;4.20;;;22.40;93.60;;;;;;5110775;28;20022;-51
2021/09/24 10:43:47;;;;;;;7.30;3.72;;;22.00;94.40;;;;;;5111949;28;20039;-58
2021/09/24 10:46:25;;;;;;;5.47;3.55;;;21.50;95.20;;;;;;5111835;28;20027;-48
2021/09/24 10:49:16;;;;;;;5.90;3.55;;;21.30;95.70;;;;;;5093126;28;20019;-46
2021/09/24 10:51:57;;;;;;;12.57;3.95;;;21.00;96.20;;;;;;5111978;28;20024;-46
2021/09/24 10:54:25;;;;;;;6.90;3.47;;;20.90;96.40;;;;;;5112090;28;20106;-53
2021/09/24 10:57:05;;;;;;;3.33;3.00;;;20.90;96.60;;;;;;5111770;28;20105;-47
2021/09/24 10:59:33;;;;;;;7.47;3.55;;;20.70;97.20;;;;;;5111308;28;20023;-48
2021/09/24 11:02:18;;;;;;;3.72;3.25;;;20.70;97.30;;;;;;5111552;28;20046;-48
2021/09/24 11:04:45;;;;;;;6.28;3.20;;;20.60;97.20;;;;;;5093554;28;20023;-47
2021/09/24 11:07:27;;;;;;;6.50;4.10;;;20.50;97.30;;;;;;5111392;28;20043;-45
2021/09/24 11:09:53;;;;;;;8.20;4.25;;;20.50;97.70;;;;;;5111983;28;20031;-45
2021/09/24 11:12:19;;;;;;;4.50;3.67;;;20.40;97.60;;;;;;5111863;28;20016;-45
2021/09/24 11:14:45;;;;;;;6.68;3.90;;;20.30;97.60;;;;;;5111036;28;20023;-45
2021/09/24 11:17:12;;;;;;;6.57;3.80;;;20.30;98.00;;;;;;5111320;28;20059;-49
2021/09/24 11:19:41;;;;;;;5.30;3.67;;;20.30;98.30;;;;;;5093231;28;20145;-46
2021/09/24 11:22:08;;;;;;;11.40;4.35;;;20.30;98.10;;;;;;5111749;28;20046;-46
2021/09/24 11:24:39;;;;;;;6.10;3.75;;;20.50;98.10;;;;;;5111419;28;20023;-45
2021/09/24 11:27:09;;;;;;;9.48;4.00;;;20.70;97.60;;;;;;5111414;28;20136;-48
2021/09/24 11:30:03;;;;;;;13.13;4.68;;;20.70;97.20;;;;;;5110983;28;20488;-45
2021/09/24 11:32:32;;;;;;;10.15;4.30;;;20.70;97.30;;;;;;5111140;28;20024;-45
2021/09/24 11:34:58;;;;;;;6.60;3.38;;;20.70;97.50;;;;;;5111098;28;20087;-48
2021/09/24 11:37:29;;;;;;;9.80;4.55;;;20.70;97.40;;;;;;5110048;28;20035;-47
2021/09/24 11:40:07;;;;;;;7.82;3.97;;;20.50;97.40;;;;;;5109832;28;20515;-45
2021/09/24 11:42:35;;;;;;;4.50;3.00;;;20.30;97.80;;;;;;5111084;28;20156;-46
2021/09/24 11:45:04;;;;;;;7.72;3.72;;;20.20;98.00;;;;;;5110921;28;20055;-45
2021/09/24 11:47:33;;;;;;;8.55;3.97;;;20.10;98.10;;;;;;5110306;28;20181;-50
2021/09/24 11:50:04;;;;;;;7.93;3.38;;;20.00;98.40;;;;;;5110999;28;20085;-46
2021/09/24 11:52:52;;;;;;;9.85;3.40;;;20.00;98.70;;;;;;5110897;28;20030;-46
2021/09/24 11:55:23;;;;;;;6.68;3.47;;;19.90;99.00;;;;;;5110773;28;20027;-48
2021/09/24 11:58:03;;;;;;;5.40;2.60;;;20.00;98.90;;;;;;5109921;28;20058;-45
2021/09/24 12:00:34;;;;;;;9.85;2.88;;;20.00;98.70;;;;;;5110695;28;20031;-45
2021/09/24 12:03:12;;;;;;;5.07;2.20;;;19.90;98.70;;;;;;5110542;28;20049;-47
2021/09/24 12:05:38;;;;;;;4.97;2.50;;;19.90;98.60;;;;;;5110735;28;20024;-45
2021/09/24 12:08:13;;;;;;;5.32;2.28;;;20.00;98.90;;;;;;5110100;28;20031;-47
2021/09/24 12:10:39;;;;;;;4.10;2.20;;;20.10;98.90;;;;;;5110670;28;20495;-45
2021/09/24 12:13:09;;;;;;;8.02;2.40;;;20.20;98.50;;;;;;5110810;28;20035;-48
2021/09/24 12:15:51;;;;;;;4.80;1.42;;;20.20;98.40;;;;;;5110325;28;20028;-49
2021/09/24 12:18:17;;;;;;;3.70;1.92;;;20.20;98.50;;;;;;5091246;28;20031;-49
2021/09/24 12:20:45;;;;;;;3.65;1.60;;;20.20;98.50;;;;;;5092191;28;20027;-48
2021/09/24 12:23:11;;;;;;;4.65;1.30;;;20.20;98.40;;;;;;5110563;28;20028;-47
2021/09/24 12:25:36;;;;;;;1.23;1.00;;;20.20;98.70;;;;;;5113049;28;20028;-47
2021/09/24 12:28:12;;;;;;;1.85;1.17;;;20.20;98.80;;;;;;5113909;28;20385;-46
2021/09/24 12:30:41;;;;;;;1.38;1.10;;;20.20;98.30;;;;;;5114693;28;20240;-47
2021/09/24 12:33:12;;;;;;;1.90;1.17;;;20.20;98.40;;;;;;5114604;28;20020;-48
2021/09/24 12:35:38;;;;;;;8.70;6.60;;;20.30;98.30;;;;;;5095963;28;20055;-45
2021/09/24 12:38:04;;;;;;;29.67;20.52;;;20.30;98.20;;;;;;5112514;28;20109;-45
2021/09/24 12:40:30;;;;;;;38.05;26.73;;;20.40;98.20;;;;;;5114385;28;20370;-46
2021/09/24 12:42:58;;;;;;;2.83;1.90;;;20.50;97.80;;;;;;5114351;28;20020;-45